"TOA5","C150","CR1000","43625","CR1000.Std.22","CPU:247411_r6_eppley7.CR1","60899","eppley_data"
"TIMESTAMP","RECORD","PIR_net","Case_Temp_K","PSP_in_Avg","PSP_in_Min","PSP_in_Max","PIR_in_Avg","PIR_in_Min","PIR_in_Max","wd_2minavg","ws_2minavg","AirTC","RH","BP_mbar"
"TS","RN","","","","","","","","","","","Deg C","Percent","Millibar"
"","","Smp","Smp","Avg","Min","Max","Avg","Min","Max","Smp","Smp","Smp","Smp","Smp"
"2018-10-07 04:40:00",33599,"NAN","NAN",194,185.7,199.5,"NAN","NAN","NAN",163.9,11.68,-13.11,75.77,978
"2018-10-07 04:50:00",33600,"NAN","NAN",167.7,148.5,186.5,"NAN","NAN","NAN",167.7,15.75,-13.45,77.13,978
"2018-10-07 05:00:00",33601,"NAN","NAN",147.2,139.5,162.8,"NAN","NAN","NAN",164.7,13,-13.48,81.8,977
"2018-10-07 05:10:00",33602,"NAN","NAN",165.8,148.1,180.1,"NAN","NAN","NAN",170.8,15.45,-13.41,81,977
"2018-10-07 05:20:00",33603,"NAN","NAN",168.3,149.7,182.9,"NAN","NAN","NAN",175.5,14.71,-12.87,77.37,977
"2018-10-07 05:30:00",33604,"NAN","NAN",135.2,109,164.3,"NAN","NAN","NAN",184.3,14.64,-12.46,74.54,978
"2018-10-07 05:40:00",33605,"NAN","NAN",86.6,77.82,107.8,"NAN","NAN","NAN",185.6,12.12,-12.42,75.12,978
"2018-10-07 05:50:00",33606,"NAN","NAN",74.11,65.18,87.3,"NAN","NAN","NAN",195.6,12.15,-12.53,70.72,978
"2018-10-07 06:00:00",33607,"NAN","NAN",61.96,57.68,68.34,"NAN","NAN","NAN",196.2,9.93,-12.66,71.81,978
"2018-10-07 06:10:00",33608,"NAN","NAN",61.14,56.49,64,"NAN","NAN","NAN",185.5,11.98,-12.9,71.87,978
"2018-10-07 06:20:00",33609,"NAN","NAN",52.19,45.43,58.46,"NAN","NAN","NAN",170.7,14.73,-13.31,81.5,978
"2018-10-07 06:30:00",33610,"NAN","NAN",46.57,39.11,55.7,"NAN","NAN","NAN",179.8,15.97,-13.35,82.6,977
"2018-10-07 06:40:00",33611,"NAN","NAN",48.33,44.64,52.93,"NAN","NAN","NAN",187.9,12.91,-13.35,80.6,977
"2018-10-07 06:50:00",33612,"NAN","NAN",44.96,41.48,50.56,"NAN","NAN","NAN",191.8,10.78,-13.34,77.75,977
"2018-10-07 07:00:00",33613,"NAN","NAN",40.86,38.32,45.43,"NAN","NAN","NAN",173.3,9.24,-13.41,76.35,978
"2018-10-07 07:10:00",33614,"NAN","NAN",40.56,39.11,43.06,"NAN","NAN","NAN",157.2,10.5,-13.55,77.27,978
"2018-10-07 07:20:00",33615,"NAN","NAN",40.19,38.32,43.85,"NAN","NAN","NAN",152.9,9.94,-13.75,78.53,978
"2018-10-07 07:30:00",33616,"NAN","NAN",32.85,26.86,39.9,"NAN","NAN","NAN",164.2,10.08,-14.06,78.94,978
"2018-10-07 07:40:00",33617,"NAN","NAN",27.03,24.1,30.42,"NAN","NAN","NAN",177.3,8.93,-14.2,80.6,978
"2018-10-07 07:50:00",33618,"NAN","NAN",24.15,21.33,27.66,"NAN","NAN","NAN",182.7,9.63,-14.06,79.39,978
"2018-10-07 08:00:00",33619,"NAN","NAN",19.74,17.38,22.52,"NAN","NAN","NAN",178.2,6.473,-13.99,75.39,978
"2018-10-07 08:10:00",33620,"NAN","NAN",16.3,13.83,18.57,"NAN","NAN","NAN",167.7,8.17,-14.4,77.34,978
"2018-10-07 08:20:00",33621,"NAN","NAN",13.79,11.46,18.17,"NAN","NAN","NAN",161.4,10.88,-14.1,77.95,978
"2018-10-07 08:30:00",33622,"NAN","NAN",11.23,8.3,16.2,"NAN","NAN","NAN",163.2,10.63,-13.96,76.04,978
"2018-10-07 08:40:00",33623,"NAN","NAN",7.418,5.927,12.25,"NAN","NAN","NAN",162,7.539,-14.1,76.52,978
"2018-10-07 08:50:00",33624,"NAN","NAN",5.423,4.346,8.69,"NAN","NAN","NAN",166.1,5.811,-13.69,75.36,978
"2018-10-07 09:00:00",33625,"NAN","NAN",5.838,4.346,8.3,"NAN","NAN","NAN",170.5,12.03,-13.52,76.25,978
"2018-10-07 09:10:00",33626,"NAN","NAN",5.406,3.161,10.27,"NAN","NAN","NAN",166.3,11.58,-13.65,78.94,978
"2018-10-07 09:20:00",33627,"NAN","NAN",6.187,0.79,13.43,"NAN","NAN","NAN",163.4,13.35,-13.38,78.09,978
"2018-10-07 09:30:00",33628,"NAN","NAN",4.606,-0.395,9.09,"NAN","NAN","NAN",163.8,13.51,-13.79,83.5,977
"2018-10-07 09:40:00",33629,"NAN","NAN",3.398,-1.976,11.06,"NAN","NAN","NAN",157.3,12.25,-13.92,84.5,977
"2018-10-07 09:50:00",33630,"NAN","NAN",2.483,-0.395,6.717,"NAN","NAN","NAN",159.2,10.93,-13.99,83.2,977
"2018-10-07 10:00:00",33631,"NAN","NAN",1.933,-0.395,3.556,"NAN","NAN","NAN",153.4,10.32,-13.96,85.5,978
"2018-10-07 10:10:00",33632,"NAN","NAN",1.32,0.395,2.371,"NAN","NAN","NAN",156.9,6.848,-13.92,84.6,978
"2018-10-07 10:20:00",33633,"NAN","NAN",0.794,0.79,1.185,"NAN","NAN","NAN",135.8,3.318,-13.99,84.5,978
"2018-10-07 10:30:00",33634,"NAN","NAN",0.79,0.79,0.79,"NAN","NAN","NAN",136.7,4.119,-13.75,82.3,978
"2018-10-07 10:40:00",33635,"NAN","NAN",0.79,0.79,0.79,"NAN","NAN","NAN",59.34,3.712,-13.65,83,978
"2018-10-07 10:50:00",33636,"NAN","NAN",0.79,0.79,0.79,"NAN","NAN","NAN",109.7,2.437,-13.38,81.1,978
"2018-10-07 11:00:00",33637,"NAN","NAN",0.79,0.79,0.79,"NAN","NAN","NAN",219.4,0.288,-13.17,80.4,978
"2018-10-07 11:10:00",33638,"NAN","NAN",0.807,0.395,1.185,"NAN","NAN","NAN",56.06,3.093,-13.14,79.49,978
"2018-10-07 11:20:00",33639,"NAN","NAN",0.191,0,0.395,"NAN","NAN","NAN",156.3,2.926,-12.93,78.06,978
"2018-10-07 11:30:00",33640,"NAN","NAN",0.099,0,0.395,"NAN","NAN","NAN",141.5,1.296,-13.28,78.74,978
"2018-10-07 11:40:00",33641,"NAN","NAN",0,0,0,"NAN","NAN","NAN",85.2,3.242,-13.72,81.3,978
"2018-10-07 11:50:00",33642,"NAN","NAN",0.063,0,0.395,"NAN","NAN","NAN",74.12,3.494,-13.45,77.68,978
"2018-10-07 12:00:00",33643,"NAN","NAN",0.55,0.395,0.79,"NAN","NAN","NAN",104.4,4.613,-13.28,75.15,978
"2018-10-07 12:10:00",33644,"NAN","NAN",0.392,0,0.79,"NAN","NAN","NAN",86.3,3.316,-13.86,76.69,978
"2018-10-07 12:20:00",33645,"NAN","NAN",0.477,0,0.79,"NAN","NAN","NAN",117.9,5.316,-13.62,74.4,978
"2018-10-07 12:30:00",33646,"NAN","NAN",0.57,0,0.79,"NAN","NAN","NAN",133.9,6.078,-13.89,79.56,977
"2018-10-07 12:40:00",33647,"NAN","NAN",0.761,0.395,1.185,"NAN","NAN","NAN",133.9,6.997,-13.41,74.23,977
"2018-10-07 12:50:00",33648,"NAN","NAN",0.675,0.395,0.79,"NAN","NAN","NAN",133.2,5.584,-13.86,76.15,977
"2018-10-07 13:00:00",33649,"NAN","NAN",0.639,0.395,0.79,"NAN","NAN","NAN",127.2,7.272,-13.92,75.77,977
"2018-10-07 13:10:00",33650,"NAN","NAN",0.527,0,0.79,"NAN","NAN","NAN",125.9,4.974,-14.09,76.11,977
"2018-10-07 13:20:00",33651,"NAN","NAN",0.691,0.395,0.79,"NAN","NAN","NAN",128,6.192,-14.09,78.23,977
"2018-10-07 13:30:00",33652,"NAN","NAN",0.81,0.79,1.58,"NAN","NAN","NAN",130.8,6.905,-13.96,80.8,977
"2018-10-07 13:40:00",33653,"NAN","NAN",0.8,0.395,1.58,"NAN","NAN","NAN",126.4,8.04,-13.92,81.6,977
"2018-10-07 13:50:00",33654,"NAN","NAN",0.866,0.395,1.58,"NAN","NAN","NAN",140.4,7.553,-13.92,82.5,977
"2018-10-07 14:00:00",33655,"NAN","NAN",0.912,0,2.371,"NAN","NAN","NAN",136,8.18,-13.52,79.83,977
"2018-10-07 14:10:00",33656,"NAN","NAN",0.668,0,1.58,"NAN","NAN","NAN",141.1,6.978,-14.03,83.2,977
"2018-10-07 14:20:00",33657,"NAN","NAN",0.112,-0.395,0.79,"NAN","NAN","NAN",139.4,7.925,-14.16,82.5,977
"2018-10-07 14:30:00",33658,"NAN","NAN",0.441,0,0.79,"NAN","NAN","NAN",144.4,7.39,-13.55,77.51,977
"2018-10-07 14:40:00",33659,"NAN","NAN",0.619,-0.79,2.371,"NAN","NAN","NAN",129.4,7.487,-13.45,79.69,977
"2018-10-07 14:50:00",33660,"NAN","NAN",0.54,-1.185,5.532,"NAN","NAN","NAN",127.9,8.44,-13.38,79.59,977
"2018-10-07 15:00:00",33661,"NAN","NAN",0.491,-0.395,1.58,"NAN","NAN","NAN",129.2,7.253,-13.58,80.6,976
"2018-10-07 15:10:00",33662,"NAN","NAN",1.468,-0.79,4.346,"NAN","NAN","NAN",148.8,9.06,-13.11,84.4,976
"2018-10-07 15:20:00",33663,"NAN","NAN",2.071,-0.395,4.741,"NAN","NAN","NAN",163.4,9.76,-12.76,82.4,976
"2018-10-07 15:30:00",33664,"NAN","NAN",2.038,0.395,4.741,"NAN","NAN","NAN",160.2,9.76,-12.73,82.8,977
"2018-10-07 15:40:00",33665,"NAN","NAN",2.107,-0.395,4.741,"NAN","NAN","NAN",158.1,9.24,-12.63,83.4,977
"2018-10-07 15:50:00",33666,"NAN","NAN",3.227,0,6.322,"NAN","NAN","NAN",174.6,10.98,-12.35,81.3,977
"2018-10-07 16:00:00",33667,"NAN","NAN",4.07,0.79,9.09,"NAN","NAN","NAN",180.6,12.01,-12.15,80.3,976
"2018-10-07 16:10:00",33668,"NAN","NAN",4.55,0.79,11.06,"NAN","NAN","NAN",180.7,12.51,-12.01,81,976
"2018-10-07 16:20:00",33669,"NAN","NAN",5.162,0.395,8.69,"NAN","NAN","NAN",178.7,12.25,-11.84,79.49,976
"2018-10-07 16:30:00",33670,"NAN","NAN",5.659,1.185,11.06,"NAN","NAN","NAN",180,12.54,-11.5,76.69,976
"2018-10-07 16:40:00",33671,"NAN","NAN",6.782,-2.37,12.25,"NAN","NAN","NAN",175.4,14,-11.47,82,976
"2018-10-07 16:50:00",33672,"NAN","NAN",7.756,4.345,15.8,"NAN","NAN","NAN",175.8,13.02,-11.68,84.2,976
"2018-10-07 17:00:00",33673,"NAN","NAN",8.52,5.53,15.01,"NAN","NAN","NAN",176.8,11.15,-11.47,83.5,976
"2018-10-07 17:10:00",33674,"NAN","NAN",11.14,8.29,17.38,"NAN","NAN","NAN",181.9,15.96,-11.37,81.2,976
"2018-10-07 17:20:00",33675,"NAN","NAN",13.06,9.87,16.59,"NAN","NAN","NAN",180.2,11.54,-11.4,83.4,976
"2018-10-07 17:30:00",33676,"NAN","NAN",14.64,12.64,17.77,"NAN","NAN","NAN",179.6,9.65,-11.3,82.1,976
"2018-10-07 17:40:00",33677,"NAN","NAN",15.74,14.22,17.77,"NAN","NAN","NAN",171,10.25,-11.57,85.5,976
"2018-10-07 17:50:00",33678,"NAN","NAN",18.01,13.82,22.12,"NAN","NAN","NAN",171.5,12.38,-11.51,87.6,976
"2018-10-07 18:00:00",33679,"NAN","NAN",21.91,16.98,26.46,"NAN","NAN","NAN",171.2,13.7,-11.71,86.3,975
"2018-10-07 18:10:00",33680,"NAN","NAN",26.44,22.51,30.81,"NAN","NAN","NAN",179.7,13.7,-11.57,86.8,975
"2018-10-07 18:20:00",33681,"NAN","NAN",28.28,26.07,30.81,"NAN","NAN","NAN",179.9,9.36,-11.88,86.5,975